Paris, Michigan
Current Conditions -  °F | °C
As of 1:15 AM on Monday 26 Jan 2015 (Local Time) from KRQB Reporting Station
Clear Clear  
Wind Chill:   Ceiling: Unl
Heat Index:   Visibility: 10mi
Dew Point:   Wind: 0mph
Humidity: 84%   Direction: NA
Pressure: 29.98"   Gusts: NA
Location:  43.77°N, 85.5°W
Report Text: KRQB 260615Z AUTO 00000KT 10SM CLR M13/M16 A2998 RMK AO2 T11351157
Loading
Personal Weather Stations






























Interactive Weather Map New forecast layout! Learn more

10-Day Weather Forecast

Advertisements
Track Severe Weather on mobile